createdAt,value
2022-08-21T00:02:02.504Z,17.16
2022-08-21T00:04:30.060Z,17.14
2022-08-21T00:06:58.305Z,17.10
2022-08-21T00:09:25.263Z,17.10
2022-08-21T00:11:52.341Z,17.08
2022-08-21T00:14:19.053Z,17.04
2022-08-21T00:16:45.883Z,16.99
2022-08-21T00:19:13.046Z,16.96
2022-08-21T00:21:40.013Z,16.92
2022-08-21T00:24:11.172Z,16.86
2022-08-21T00:26:37.878Z,16.89
2022-08-21T00:29:05.151Z,16.92
2022-08-21T00:31:31.915Z,16.93
2022-08-21T00:34:01.119Z,16.93
2022-08-21T00:36:28.942Z,16.80
2022-08-21T00:38:55.751Z,16.80
2022-08-21T00:41:36.745Z,16.85
2022-08-21T00:44:07.870Z,16.82
2022-08-21T00:46:35.098Z,16.79
2022-08-21T00:49:02.070Z,16.75
2022-08-21T00:51:53.037Z,16.69
2022-08-21T00:54:22.349Z,16.64
2022-08-21T00:56:51.882Z,16.59
2022-08-21T00:59:21.046Z,16.57
2022-08-21T01:01:48.351Z,16.55
2022-08-21T01:04:16.689Z,16.57
2022-08-21T01:06:43.830Z,16.57
2022-08-21T01:09:10.821Z,16.60
2022-08-21T01:11:37.554Z,16.55
2022-08-21T01:14:04.557Z,16.50
2022-08-21T01:16:34.901Z,16.45
2022-08-21T01:19:01.697Z,16.42
2022-08-21T01:21:29.654Z,16.41
2022-08-21T01:23:57.615Z,16.37
2022-08-21T01:26:33.651Z,16.36
2022-08-21T01:29:11.150Z,16.38
2022-08-21T01:31:38.218Z,16.35
2022-08-21T01:34:05.467Z,16.35
2022-08-21T01:36:33.560Z,16.34
2022-08-21T01:39:00.893Z,16.31
2022-08-21T01:41:27.605Z,16.28
2022-08-21T01:43:54.310Z,16.28
2022-08-21T01:46:21.066Z,16.31
2022-08-21T01:48:47.721Z,16.31
2022-08-21T01:51:14.781Z,16.26
2022-08-21T01:53:41.493Z,16.23
2022-08-21T01:56:12.528Z,16.16
2022-08-21T01:58:44.560Z,16.09
2022-08-21T02:01:11.761Z,16.11
2022-08-21T02:03:38.910Z,16.13
2022-08-21T02:06:07.825Z,16.13
2022-08-21T02:08:35.093Z,16.11
2022-08-21T02:11:02.209Z,16.09
2022-08-21T02:13:28.935Z,16.05
2022-08-21T02:15:55.629Z,15.98
2022-08-21T02:18:22.278Z,15.93
2022-08-21T02:20:56.079Z,15.95
2022-08-21T02:23:26.946Z,15.97
2022-08-21T02:26:06.058Z,15.92
2022-08-21T02:28:33.279Z,15.90
2022-08-21T02:31:00.066Z,15.92
2022-08-21T02:33:27.219Z,15.87
2022-08-21T02:35:59.698Z,15.84
2022-08-21T02:38:31.163Z,15.83
2022-08-21T02:40:58.616Z,15.75
2022-08-21T02:43:27.130Z,15.69
2022-08-21T02:45:56.202Z,15.64
2022-08-21T02:48:27.141Z,15.59
2022-08-21T02:51:08.289Z,15.62
2022-08-21T02:53:36.438Z,15.63
2022-08-21T02:56:09.685Z,15.61
2022-08-21T02:58:39.638Z,15.62
2022-08-21T03:01:10.694Z,15.56
2022-08-21T03:03:40.218Z,15.53
2022-08-21T03:06:09.136Z,15.50
2022-08-21T03:08:37.221Z,15.50
2022-08-21T03:11:04.335Z,15.52
2022-08-21T03:13:33.423Z,15.47
2022-08-21T03:16:00.289Z,15.40
2022-08-21T03:18:27.228Z,15.39
2022-08-21T03:20:53.866Z,15.35
2022-08-21T03:23:20.715Z,15.33
2022-08-21T03:25:49.343Z,15.37
2022-08-21T03:28:19.704Z,15.40
2022-08-21T03:30:49.053Z,15.42
2022-08-21T03:33:16.023Z,15.40
2022-08-21T03:35:45.275Z,15.39
2022-08-21T03:38:13.989Z,15.36
2022-08-21T03:40:42.658Z,15.33
2022-08-21T03:43:10.612Z,15.34
2022-08-21T03:45:38.923Z,15.32
2022-08-21T03:48:06.767Z,15.32
2022-08-21T03:50:41.175Z,15.30
2022-08-21T03:53:17.242Z,15.31
2022-08-21T03:55:50.108Z,15.30
2022-08-21T03:58:18.739Z,15.31
2022-08-21T04:00:51.786Z,15.30
2022-08-21T04:03:19.529Z,15.31
2022-08-21T04:05:46.953Z,15.29
2022-08-21T04:08:14.968Z,15.24
2022-08-21T04:10:45.768Z,15.13
2022-08-21T04:13:12.595Z,15.11
2022-08-21T04:15:39.405Z,15.11
2022-08-21T04:18:06.662Z,15.10
2022-08-21T04:20:34.158Z,15.10
2022-08-21T04:23:01.207Z,15.03
2022-08-21T04:25:28.279Z,14.97
2022-08-21T04:27:55.176Z,14.98
2022-08-21T04:30:28.795Z,14.98
2022-08-21T04:32:56.719Z,14.98
2022-08-21T04:35:24.269Z,14.94
2022-08-21T04:37:51.412Z,14.90
2022-08-21T04:40:21.167Z,14.92
2022-08-21T04:42:58.236Z,14.85
2022-08-21T04:45:34.020Z,14.87
2022-08-21T04:48:04.238Z,14.92
2022-08-21T04:50:41.065Z,14.88
2022-08-21T04:53:13.381Z,14.92
2022-08-21T04:55:41.100Z,14.94
2022-08-21T04:58:09.954Z,14.96
2022-08-21T05:00:37.000Z,14.99
2022-08-21T05:03:05.243Z,15.00
2022-08-21T05:05:31.970Z,14.98
2022-08-21T05:08:00.571Z,15.03
2022-08-21T05:10:27.646Z,15.05
2022-08-21T05:12:55.169Z,15.13
2022-08-21T05:15:22.309Z,15.24
2022-08-21T05:17:53.766Z,15.30
2022-08-21T05:20:27.908Z,15.38
2022-08-21T05:22:54.727Z,15.43
2022-08-21T05:25:22.342Z,15.50
2022-08-21T05:27:52.148Z,15.60
2022-08-21T05:30:20.166Z,15.72
2022-08-21T05:32:48.301Z,15.76
2022-08-21T05:35:15.283Z,15.83
2022-08-21T05:37:41.994Z,15.93
2022-08-21T05:40:22.741Z,16.04
2022-08-21T05:42:55.562Z,16.16
2022-08-21T05:45:26.398Z,16.28
2022-08-21T05:48:26.248Z,16.37
2022-08-21T05:50:53.534Z,16.41
2022-08-21T05:53:21.802Z,16.44
2022-08-21T05:55:48.787Z,16.52
2022-08-21T05:58:17.715Z,16.64
2022-08-21T06:00:45.259Z,16.71
2022-08-21T06:03:14.332Z,16.80
2022-08-21T06:05:41.030Z,16.86
2022-08-21T06:08:07.701Z,16.95
2022-08-21T06:10:34.864Z,17.08
2022-08-21T06:13:01.625Z,17.20
2022-08-21T06:15:28.435Z,17.34
2022-08-21T06:17:55.385Z,17.47
2022-08-21T06:20:22.894Z,17.60
2022-08-21T06:22:50.072Z,17.69
2022-08-21T06:25:16.916Z,17.77
2022-08-21T06:27:43.595Z,17.90
2022-08-21T06:30:10.812Z,18.02
2022-08-21T06:32:37.830Z,18.14
2022-08-21T06:35:06.975Z,18.24
2022-08-21T06:37:33.976Z,18.38
2022-08-21T06:40:01.152Z,18.41
2022-08-21T06:42:29.090Z,18.43
2022-08-21T06:44:56.127Z,18.44
2022-08-21T06:47:22.981Z,18.50
2022-08-21T06:49:49.805Z,18.55
2022-08-21T06:52:16.882Z,18.63
2022-08-21T06:54:43.858Z,18.73
2022-08-21T06:57:10.556Z,18.80
2022-08-21T06:59:37.363Z,18.87
2022-08-21T07:02:04.721Z,18.94
2022-08-21T07:04:31.774Z,19.00
2022-08-21T07:06:58.471Z,19.04
2022-08-21T07:09:25.211Z,19.10
2022-08-21T07:11:55.005Z,19.16
2022-08-21T07:14:22.295Z,19.23
2022-08-21T07:16:50.203Z,19.30
2022-08-21T07:19:16.943Z,19.36
2022-08-21T07:21:43.727Z,19.43
2022-08-21T07:24:10.617Z,19.51
2022-08-21T07:26:37.681Z,19.58
2022-08-21T07:29:04.989Z,19.63
2022-08-21T07:31:32.579Z,19.71
2022-08-21T07:33:59.422Z,19.80
2022-08-21T07:36:26.221Z,19.89
2022-08-21T07:38:53.147Z,19.99
2022-08-21T07:41:31.214Z,20.04
2022-08-21T07:44:00.977Z,20.14
2022-08-21T07:46:29.054Z,20.20
2022-08-21T07:48:55.906Z,20.26
2022-08-21T07:51:26.271Z,20.35
2022-08-21T07:53:53.727Z,20.52
2022-08-21T07:56:21.153Z,20.55
2022-08-21T07:58:48.367Z,20.64
2022-08-21T08:01:15.372Z,20.75
2022-08-21T08:03:42.141Z,20.85
2022-08-21T08:06:13.137Z,20.91
2022-08-21T08:08:41.767Z,20.98
2022-08-21T08:11:11.754Z,21.05
2022-08-21T08:13:43.584Z,21.13
2022-08-21T08:16:10.796Z,21.26
2022-08-21T08:18:37.675Z,21.37
2022-08-21T08:21:05.915Z,21.49
2022-08-21T08:23:33.083Z,21.60
2022-08-21T08:26:00.439Z,21.70
2022-08-21T08:28:28.402Z,21.83
2022-08-21T08:30:55.546Z,21.95
2022-08-21T08:33:22.671Z,22.08
2022-08-21T08:35:51.259Z,22.20
2022-08-21T08:38:21.534Z,22.33
2022-08-21T08:41:09.540Z,22.45
2022-08-21T08:43:37.067Z,22.57
2022-08-21T08:46:07.612Z,22.68
2022-08-21T08:48:41.719Z,22.81
2022-08-21T08:51:16.725Z,22.88
2022-08-21T08:53:50.304Z,22.99
2022-08-21T08:56:20.287Z,23.10
2022-08-21T08:58:48.495Z,23.27
2022-08-21T09:01:20.212Z,23.41
2022-08-21T09:03:52.895Z,23.52
2022-08-21T09:06:43.343Z,23.65
2022-08-21T09:09:20.506Z,23.73
2022-08-21T09:12:14.446Z,23.78
2022-08-21T09:15:03.753Z,23.89
2022-08-21T09:17:47.104Z,24.02
2022-08-21T09:20:30.113Z,24.12
2022-08-21T09:23:26.906Z,24.14
2022-08-21T09:26:21.358Z,24.29
2022-08-21T09:28:57.511Z,24.31
2022-08-21T09:31:32.241Z,24.40
2022-08-21T09:34:10.178Z,24.47
2022-08-21T09:36:38.551Z,24.56
2022-08-21T09:39:06.320Z,24.64
2022-08-21T09:41:36.464Z,24.69
2022-08-21T09:44:04.012Z,24.77
2022-08-21T09:46:31.054Z,24.70
2022-08-21T09:49:00.708Z,24.66
2022-08-21T09:51:35.239Z,24.72
2022-08-21T09:54:08.411Z,24.85
2022-08-21T09:57:10.241Z,24.91
2022-08-21T09:59:38.450Z,24.90
2022-08-21T10:02:24.142Z,24.97
2022-08-21T10:04:53.502Z,24.98
2022-08-21T10:07:23.116Z,25.02
2022-08-21T10:10:03.045Z,25.09
2022-08-21T10:12:52.878Z,25.12
2022-08-21T10:15:31.022Z,25.21
2022-08-21T10:18:05.406Z,25.29
2022-08-21T10:20:54.161Z,25.27
2022-08-21T10:23:42.822Z,25.34
2022-08-21T10:26:26.370Z,25.42
2022-08-21T10:29:04.701Z,25.51
2022-08-21T10:31:39.023Z,25.61
2022-08-21T10:34:11.787Z,25.63
2022-08-21T10:36:53.746Z,25.61
2022-08-21T10:39:36.625Z,25.63
2022-08-21T10:42:28.513Z,25.69
2022-08-21T10:45:16.678Z,25.73
2022-08-21T10:47:52.171Z,25.78
2022-08-21T10:50:33.837Z,25.88
2022-08-21T10:53:13.038Z,26.00
2022-08-21T10:56:14.331Z,26.08
2022-08-21T10:58:47.398Z,26.08
2022-08-21T11:01:25.960Z,26.12
2022-08-21T11:04:00.754Z,26.16
2022-08-21T11:06:31.151Z,26.21
2022-08-21T11:09:13.587Z,26.24
2022-08-21T11:11:59.117Z,26.33
2022-08-21T11:14:40.873Z,26.39
2022-08-21T11:17:22.137Z,26.42
2022-08-21T11:20:06.374Z,26.45
2022-08-21T11:22:38.351Z,26.56
2022-08-21T11:25:24.753Z,26.66
2022-08-21T11:28:05.033Z,26.68
2022-08-21T11:31:01.590Z,26.73
2022-08-21T11:33:39.972Z,26.76
2022-08-21T11:36:28.743Z,26.79
2022-08-21T11:39:21.968Z,26.92
2022-08-21T11:41:59.285Z,27.03
2022-08-21T11:44:42.077Z,27.09
2022-08-21T11:47:30.455Z,27.09
2022-08-21T11:50:34.259Z,27.17
2022-08-21T11:53:14.819Z,27.21
2022-08-21T11:56:01.388Z,27.21
2022-08-21T11:58:34.653Z,27.24
2022-08-21T12:01:06.360Z,27.23
2022-08-21T12:03:42.864Z,27.24
2022-08-21T12:06:24.216Z,27.29
2022-08-21T12:09:10.131Z,27.35
2022-08-21T12:12:06.259Z,27.32
2022-08-21T12:14:48.769Z,27.41
2022-08-21T12:17:36.434Z,27.47
2022-08-21T12:20:21.907Z,27.50
2022-08-21T12:22:55.883Z,27.57
2022-08-21T12:25:23.421Z,27.59
2022-08-21T12:27:55.787Z,27.61
2022-08-21T12:30:28.580Z,27.54
2022-08-21T12:33:01.502Z,27.58
2022-08-21T12:35:39.179Z,27.68
2022-08-21T12:38:47.209Z,27.73
2022-08-21T12:41:20.782Z,27.74
2022-08-21T12:44:00.910Z,27.86
2022-08-21T12:46:56.747Z,27.92
2022-08-21T12:49:49.257Z,28.10
2022-08-21T12:52:26.505Z,28.18
2022-08-21T12:54:53.310Z,28.16
2022-08-21T12:57:26.472Z,28.11
2022-08-21T12:59:58.179Z,27.99
2022-08-21T13:02:29.592Z,27.98
2022-08-21T13:04:57.522Z,28.01
2022-08-21T13:07:30.494Z,28.04
2022-08-21T13:10:00.495Z,28.11
2022-08-21T13:12:29.558Z,28.17
2022-08-21T13:15:02.503Z,28.23
2022-08-21T13:17:32.879Z,28.28
2022-08-21T13:20:06.362Z,28.29
2022-08-21T13:22:35.148Z,28.22
2022-08-21T13:25:06.492Z,28.22
2022-08-21T13:27:36.927Z,28.32
2022-08-21T13:30:12.270Z,28.54
2022-08-21T13:32:45.274Z,28.76
2022-08-21T13:35:15.238Z,28.94
2022-08-21T13:37:42.666Z,29.12
2022-08-21T13:40:12.487Z,29.15
2022-08-21T13:42:40.391Z,29.44
2022-08-21T13:45:14.354Z,29.43
2022-08-21T13:47:41.430Z,29.44
2022-08-21T13:50:08.690Z,29.50
2022-08-21T13:52:47.778Z,29.35
2022-08-21T13:55:17.673Z,29.25
2022-08-21T13:57:44.438Z,29.28
2022-08-21T14:00:20.870Z,29.32
2022-08-21T14:02:51.802Z,29.45
2022-08-21T14:05:28.049Z,29.67
2022-08-21T14:08:13.912Z,29.83
2022-08-21T14:10:53.868Z,29.94
2022-08-21T14:13:45.412Z,29.99
2022-08-21T14:16:21.509Z,30.18
2022-08-21T14:18:52.425Z,30.12
2022-08-21T14:21:33.774Z,29.93
2022-08-21T14:24:13.522Z,29.96
2022-08-21T14:26:48.318Z,30.09
2022-08-21T14:29:17.204Z,30.09
2022-08-21T14:31:45.207Z,30.10
2022-08-21T14:34:19.049Z,30.20
2022-08-21T14:36:48.616Z,30.25
2022-08-21T14:39:15.363Z,30.42
2022-08-21T14:41:43.567Z,30.45
2022-08-21T14:44:10.695Z,30.57
2022-08-21T14:46:43.973Z,30.49
2022-08-21T14:49:22.802Z,30.46
2022-08-21T14:51:54.685Z,30.43
2022-08-21T14:54:22.419Z,30.41
2022-08-21T14:56:56.050Z,30.52
2022-08-21T14:59:22.828Z,30.48
2022-08-21T15:01:50.606Z,30.42
2022-08-21T15:04:17.482Z,30.41
2022-08-21T15:06:44.730Z,30.44
2022-08-21T15:09:11.427Z,30.42
2022-08-21T15:11:41.980Z,30.39
2022-08-21T15:14:12.571Z,30.44
2022-08-21T15:16:39.322Z,30.60
2022-08-21T15:19:05.990Z,30.65
2022-08-21T15:21:37.109Z,30.76
2022-08-21T15:24:04.666Z,30.72
2022-08-21T15:26:31.686Z,30.70
2022-08-21T15:29:00.513Z,30.90
2022-08-21T15:31:28.506Z,31.16
2022-08-21T15:33:56.246Z,31.40
2022-08-21T15:36:23.233Z,31.92
2022-08-21T15:38:50.563Z,32.74
2022-08-21T15:41:18.346Z,35.04
2022-08-21T15:43:52.673Z,37.34
2022-08-21T15:46:20.635Z,37.76
2022-08-21T15:48:47.531Z,36.76
2022-08-21T15:51:20.084Z,34.96
2022-08-21T15:53:56.845Z,33.47
2022-08-21T15:56:25.730Z,32.57
2022-08-21T15:58:54.186Z,32.28
2022-08-21T16:01:22.764Z,32.22
2022-08-21T16:03:52.040Z,32.23
2022-08-21T16:06:18.891Z,31.96
2022-08-21T16:09:05.501Z,32.61
2022-08-21T16:11:32.362Z,34.27
2022-08-21T16:13:59.280Z,35.21
2022-08-21T16:16:26.018Z,36.27
2022-08-21T16:18:53.680Z,38.00
2022-08-21T16:21:21.702Z,38.15
2022-08-21T16:23:49.700Z,36.45
2022-08-21T16:26:18.374Z,34.95
2022-08-21T16:28:46.497Z,33.76
2022-08-21T16:31:15.375Z,33.09
2022-08-21T16:33:46.125Z,32.51
2022-08-21T16:36:13.583Z,31.92
2022-08-21T16:38:41.871Z,31.41
2022-08-21T16:41:12.002Z,30.92
2022-08-21T16:43:41.105Z,30.66
2022-08-21T16:46:09.233Z,31.18
2022-08-21T16:48:36.087Z,35.12
2022-08-21T16:51:05.055Z,39.51
2022-08-21T16:53:32.062Z,42.98
2022-08-21T16:55:59.050Z,45.42
2022-08-21T16:58:31.826Z,46.85
2022-08-21T17:00:59.877Z,46.08
2022-08-21T17:03:30.763Z,42.20
2022-08-21T17:05:57.570Z,39.35
2022-08-21T17:08:24.353Z,37.32
2022-08-21T17:10:51.461Z,36.44
2022-08-21T17:13:18.318Z,36.50
2022-08-21T17:15:45.990Z,35.07
2022-08-21T17:18:16.341Z,33.82
2022-08-21T17:20:43.086Z,32.78
2022-08-21T17:23:10.152Z,31.97
2022-08-21T17:25:40.048Z,31.30
2022-08-21T17:28:07.812Z,30.63
2022-08-21T17:30:34.561Z,30.21
2022-08-21T17:33:01.575Z,29.83
2022-08-21T17:35:28.358Z,29.44
2022-08-21T17:37:55.170Z,29.17
2022-08-21T17:40:23.737Z,28.77
2022-08-21T17:42:50.618Z,28.39
2022-08-21T17:45:19.342Z,28.06
2022-08-21T17:47:46.322Z,27.72
2022-08-21T17:50:14.958Z,27.39
2022-08-21T17:52:49.200Z,27.15
2022-08-21T17:55:17.322Z,26.90
2022-08-21T17:57:45.743Z,26.69
2022-08-21T18:00:15.746Z,26.46
2022-08-21T18:02:43.714Z,26.34
2022-08-21T18:05:12.254Z,26.00
2022-08-21T18:07:39.802Z,25.66
2022-08-21T18:10:11.337Z,25.50
2022-08-21T18:12:40.738Z,25.30
2022-08-21T18:15:08.272Z,25.10
2022-08-21T18:17:35.740Z,24.89
2022-08-21T18:20:05.022Z,24.75
2022-08-21T18:22:31.761Z,24.48
2022-08-21T18:24:58.542Z,24.28
2022-08-21T18:27:29.494Z,24.15
2022-08-21T18:30:00.256Z,23.99
2022-08-21T18:32:31.709Z,23.79
2022-08-21T18:35:00.987Z,23.67
2022-08-21T18:37:27.866Z,23.57
2022-08-21T18:39:54.697Z,23.50
2022-08-21T18:42:28.592Z,23.30
2022-08-21T18:44:59.681Z,23.12
2022-08-21T18:47:37.251Z,23.07
2022-08-21T18:50:10.211Z,22.93
2022-08-21T18:52:38.846Z,22.90
2022-08-21T18:55:16.601Z,22.84
2022-08-21T18:57:46.513Z,22.75
2022-08-21T19:00:19.296Z,22.69
2022-08-21T19:02:46.490Z,22.67
2022-08-21T19:05:14.788Z,22.62
2022-08-21T19:07:42.020Z,22.59
2022-08-21T19:10:27.964Z,22.52
2022-08-21T19:13:02.006Z,22.46
2022-08-21T19:15:30.498Z,22.45
2022-08-21T19:17:58.411Z,22.40
2022-08-21T19:20:36.579Z,22.24
2022-08-21T19:23:06.263Z,22.14
2022-08-21T19:25:35.610Z,22.10
2022-08-21T19:28:10.937Z,22.10
2022-08-21T19:30:40.142Z,22.07
2022-08-21T19:33:07.659Z,21.98
2022-08-21T19:35:37.175Z,21.96
2022-08-21T19:38:03.894Z,21.93
2022-08-21T19:40:31.762Z,21.86
2022-08-21T19:42:58.745Z,21.79
2022-08-21T19:45:28.778Z,21.69
2022-08-21T19:47:55.906Z,21.66
2022-08-21T19:50:25.846Z,21.62
2022-08-21T19:52:52.554Z,21.61
2022-08-21T19:55:20.402Z,21.57
2022-08-21T19:57:50.434Z,21.54
2022-08-21T20:00:18.306Z,21.51
2022-08-21T20:02:47.844Z,21.37
2022-08-21T20:05:15.949Z,21.31
2022-08-21T20:07:45.521Z,21.32
2022-08-21T20:10:13.228Z,21.29
2022-08-21T20:12:41.120Z,21.22
2022-08-21T20:15:09.010Z,21.21
2022-08-21T20:17:36.225Z,21.14
2022-08-21T20:20:04.896Z,21.16
2022-08-21T20:22:31.633Z,21.11
2022-08-21T20:24:59.052Z,21.07
2022-08-21T20:27:27.530Z,21.06
2022-08-21T20:29:54.898Z,21.05
2022-08-21T20:32:22.479Z,21.01
2022-08-21T20:34:52.149Z,20.99
2022-08-21T20:40:10.902Z,20.97
2022-08-21T20:42:47.395Z,20.92
2022-08-21T20:45:24.223Z,20.85
2022-08-21T20:48:11.670Z,20.83
2022-08-21T20:50:42.425Z,20.86
2022-08-21T20:53:43.111Z,20.90
2022-08-21T20:56:19.491Z,20.91
2022-08-21T20:59:19.101Z,20.89
2022-08-21T21:01:47.154Z,20.89
2022-08-21T21:04:32.970Z,20.89
2022-08-21T21:07:01.351Z,20.88
2022-08-21T21:09:43.762Z,20.86
2022-08-21T21:12:18.416Z,20.89
2022-08-21T21:14:58.653Z,20.88
2022-08-21T21:17:46.281Z,20.86
2022-08-21T21:20:35.086Z,20.86
2022-08-21T21:23:15.238Z,20.86
2022-08-21T21:25:58.386Z,20.83
2022-08-21T21:28:49.211Z,20.79
2022-08-21T21:31:18.142Z,20.76
2022-08-21T21:33:46.319Z,20.72
2022-08-21T21:36:13.074Z,20.69
2022-08-21T21:38:51.451Z,20.64
2022-08-21T21:41:25.050Z,20.61
2022-08-21T21:44:10.681Z,20.52
2022-08-21T21:47:02.766Z,20.52
2022-08-21T21:49:30.431Z,20.51
2022-08-21T21:52:18.198Z,20.47
2022-08-21T21:54:54.064Z,20.45
2022-08-21T21:57:55.873Z,20.46
2022-08-21T22:00:27.775Z,20.42
2022-08-21T22:03:07.928Z,20.35
2022-08-21T22:05:50.645Z,20.34
2022-08-21T22:08:17.329Z,20.25
2022-08-21T22:10:48.979Z,20.21
2022-08-21T22:13:26.617Z,20.16
2022-08-21T22:15:55.072Z,20.12
2022-08-21T22:18:26.185Z,19.99
2022-08-21T22:20:58.250Z,19.94
2022-08-21T22:23:28.598Z,19.93
2022-08-21T22:26:02.214Z,19.95
2022-08-21T22:28:33.266Z,19.94
2022-08-21T22:31:30.917Z,19.95
2022-08-21T22:34:05.200Z,19.96
2022-08-21T22:36:37.403Z,19.94
2022-08-21T22:39:08.570Z,19.93
2022-08-21T22:41:42.691Z,19.88
2022-08-21T22:44:27.228Z,19.80
2022-08-21T22:46:57.122Z,19.79
2022-08-21T22:49:31.824Z,19.76
2022-08-21T22:52:25.136Z,19.72
2022-08-21T22:54:58.257Z,19.69
2022-08-21T22:57:26.780Z,19.69
2022-08-21T23:00:17.135Z,19.66
2022-08-21T23:02:58.052Z,19.63
2022-08-21T23:05:34.341Z,19.63
2022-08-21T23:08:24.289Z,19.62
2022-08-21T23:10:58.079Z,19.61
2022-08-21T23:13:25.067Z,19.61
2022-08-21T23:16:26.781Z,19.57
2022-08-21T23:19:51.682Z,19.53
2022-08-21T23:22:21.026Z,19.54
2022-08-21T23:25:15.125Z,19.52
2022-08-21T23:31:01.935Z,19.42
2022-08-21T23:33:47.405Z,19.39
2022-08-21T23:36:42.165Z,19.37
2022-08-21T23:39:24.106Z,19.41
2022-08-21T23:42:00.649Z,19.40
2022-08-21T23:44:46.965Z,19.40
2022-08-21T23:47:33.468Z,19.40
2022-08-21T23:50:13.754Z,19.38
2022-08-21T23:52:58.704Z,19.36
2022-08-21T23:55:37.693Z,19.36
2022-08-21T23:58:04.702Z,19.31
